Rhonda Lamulle — WDC8441 — position and weather

sailwx.info

Track history (hours):
 
Tides and Currents Weather Stations Pressure Air Temp Water Temp Dewpoint Dewpoint Depression Visibility Wind Speed Wind Dir Waves Ship Positions

Rhonda Lamulle

Owner: Florida Marine Transporters, Inc., Mandeville, LA. More information available from US FCC via Universal Licensing System and Coast Guard Vessel Documentation Center.

Last reported at 2014-Dec-18 23:21 UTC. Time now 2014-Dec-22 07:03 UTC.
Position N 30°23' W 087°00'.

Length 27 m; draft 3 m.

Type: Towing. MMSI: 367087160.

Date/timePositionNaut miles runAvg speedWind from/ knotsBaromVisibWave heightAir tempDewpointWater temp
2014-Dec-18 23:21N 30°23' W 087°00'5 5.9
2014-Dec-18 22:29N 30°24' W 086°54'6 5.7
2014-Dec-18 21:29N 30°24' W 086°48'5 5.3
2014-Dec-18 20:33N 30°24' W 086°42'0 0.0
2014-Dec-18 19:33N 30°24' W 086°42'0 0.0
2014-Dec-18 18:33N 30°24' W 086°42'0 0.0
2014-Dec-18 17:33N 30°24' W 086°42'0 0.0
2014-Dec-18 16:33N 30°24' W 086°42'0 0.0
2014-Dec-18 15:33N 30°24' W 086°42'0 0.0
2014-Dec-18 14:33N 30°24' W 086°42'0 0.0
2014-Dec-18 13:33N 30°24' W 086°42'0 0.0
2014-Dec-18 12:33N 30°24' W 086°42'0 0.0
2014-Dec-18 11:33N 30°24' W 086°42'0 0.0
2014-Dec-18 10:33N 30°24' W 086°42'0 0.0
2014-Dec-18 09:33N 30°24' W 086°42'0 0.0
2014-Dec-18 08:31N 30°24' W 086°42'0 0.0
2014-Dec-18 07:29N 30°24' W 086°42'0 0.0
2014-Dec-18 06:33N 30°24' W 086°42'0 0.0
2014-Dec-18 05:31N 30°24' W 086°42'0 0.1
2014-Dec-18 04:33N 30°24' W 086°42'22 1.6
2014-Dec-17 15:16N 30°26' W 086°17'4 0.1
2014-Dec-15 11:26N 30°25' W 086°12'4 4.8
2014-Dec-15 10:33N 30°26' W 086°17'5 5.3
2014-Dec-15 09:33N 30°26' W 086°23'7 5.2
2014-Dec-15 08:15N 30°25' W 086°31'4 5.0
2014-Dec-15 07:33N 30°24' W 086°35'5 4.5
2014-Dec-15 06:33N 30°24' W 086°40'5 4.6
2014-Dec-15 05:33N 30°24' W 086°46'5 5.5
2014-Dec-15 04:33N 30°24' W 086°52'6 5.7
2014-Dec-15 03:33N 30°23' W 086°58'  
2014-Dec-10 23:32N 30°23' W 086°58'7 6.2
2014-Dec-10 22:20N 30°24' W 086°49'5 5.8
2014-Dec-10 21:24N 30°24' W 086°43'1 0.9
2014-Dec-10 20:33N 30°24' W 086°42'0 0.1
2014-Dec-10 19:33N 30°25' W 086°42'0 0.0
2014-Dec-10 18:24N 30°24' W 086°42'0 0.0
2014-Dec-10 17:33N 30°24' W 086°42'0 0.0
2014-Dec-10 16:26N 30°24' W 086°42'0 0.0
2014-Dec-10 15:33N 30°24' W 086°42'0 0.0
2014-Dec-10 14:33N 30°24' W 086°42'0 0.0
2014-Dec-10 13:33N 30°24' W 086°42'0 0.0
2014-Dec-10 12:31N 30°24' W 086°42'0 0.0
2014-Dec-10 11:26N 30°24' W 086°42'0 0.0
2014-Dec-10 10:33N 30°24' W 086°42'0 0.0
2014-Dec-10 09:33N 30°24' W 086°42'0 0.0
2014-Dec-10 08:33N 30°24' W 086°42'0 0.0
2014-Dec-10 07:30N 30°24' W 086°42'0 0.0
2014-Dec-10 06:33N 30°24' W 086°42'0 0.0
2014-Dec-10 05:33N 30°24' W 086°42'0 0.0
2014-Dec-10 04:33N 30°24' W 086°42'0 0.0
2014-Dec-10 03:33N 30°24' W 086°42'0 0.0
2014-Dec-10 02:33N 30°24' W 086°42'0 0.1
2014-Dec-10 01:33N 30°24' W 086°42'2 1.6
2014-Dec-10 00:29N 30°24' W 086°40'4 4.5
2014-Dec-09 23:33N 30°24' W 086°35'6 5.6
2014-Dec-09 22:33N 30°26' W 086°29'3 2.8
2014-Dec-09 21:33N 30°29' W 086°29'0 0.0
2014-Dec-09 20:33N 30°29' W 086°29'0 0.0
2014-Dec-09 19:33N 30°29' W 086°29'0 0.0
2014-Dec-09 18:33N 30°29' W 086°29'0 0.0
2014-Dec-09 17:33N 30°29' W 086°29'0 0.0
2014-Dec-09 16:33N 30°29' W 086°29'0 0.0
2014-Dec-09 15:33N 30°29' W 086°29'0 0.0
2014-Dec-09 14:33N 30°29' W 086°29'0 0.0
2014-Dec-09 13:33N 30°29' W 086°29'2 2.0
2014-Dec-09 12:33N 30°27' W 086°28'5 5.0
2014-Dec-09 11:33N 30°26' W 086°22'5 5.4
2014-Dec-09 10:33N 30°26' W 086°16'  
Track history (hours):
 
Tides and Currents Weather Stations Pressure Air Temp Water Temp Dewpoint Dewpoint Depression Visibility Wind Speed Wind Dir Waves Ship Positions

Rhonda Lamulle

Owner: Florida Marine Transporters, Inc., Mandeville, LA. More information available from US FCC via Universal Licensing System and Coast Guard Vessel Documentation Center.

Last reported at 2014-Dec-18 23:21 UTC. Time now 2014-Dec-22 07:03 UTC.
Position N 30°23' W 087°00'.

Length 27 m; draft 3 m.

Type: Towing. MMSI: 367087160.

Date/timePositionNaut miles runAvg speedWind from/ knotsBaromVisibWave heightAir tempDewpointWater temp
2014-Dec-18 23:21N 30°23' W 087°00'5 5.9
2014-Dec-18 22:29N 30°24' W 086°54'6 5.7
2014-Dec-18 21:29N 30°24' W 086°48'5 5.3
2014-Dec-18 20:33N 30°24' W 086°42'0 0.0
2014-Dec-18 19:33N 30°24' W 086°42'0 0.0
2014-Dec-18 18:33N 30°24' W 086°42'0 0.0
2014-Dec-18 17:33N 30°24' W 086°42'0 0.0
2014-Dec-18 16:33N 30°24' W 086°42'0 0.0
2014-Dec-18 15:33N 30°24' W 086°42'0 0.0
2014-Dec-18 14:33N 30°24' W 086°42'0 0.0
2014-Dec-18 13:33N 30°24' W 086°42'0 0.0
2014-Dec-18 12:33N 30°24' W 086°42'0 0.0
2014-Dec-18 11:33N 30°24' W 086°42'0 0.0
2014-Dec-18 10:33N 30°24' W 086°42'0 0.0
2014-Dec-18 09:33N 30°24' W 086°42'0 0.0
2014-Dec-18 08:31N 30°24' W 086°42'0 0.0
2014-Dec-18 07:29N 30°24' W 086°42'0 0.0
2014-Dec-18 06:33N 30°24' W 086°42'0 0.0
2014-Dec-18 05:31N 30°24' W 086°42'0 0.1
2014-Dec-18 04:33N 30°24' W 086°42'22 1.6
2014-Dec-17 15:16N 30°26' W 086°17'4 0.1
2014-Dec-15 11:26N 30°25' W 086°12'4 4.8
2014-Dec-15 10:33N 30°26' W 086°17'5 5.3
2014-Dec-15 09:33N 30°26' W 086°23'7 5.2
2014-Dec-15 08:15N 30°25' W 086°31'4 5.0
2014-Dec-15 07:33N 30°24' W 086°35'5 4.5
2014-Dec-15 06:33N 30°24' W 086°40'5 4.6
2014-Dec-15 05:33N 30°24' W 086°46'5 5.5
2014-Dec-15 04:33N 30°24' W 086°52'6 5.7
2014-Dec-15 03:33N 30°23' W 086°58'  
2014-Dec-10 23:32N 30°23' W 086°58'7 6.2
2014-Dec-10 22:20N 30°24' W 086°49'5 5.8
2014-Dec-10 21:24N 30°24' W 086°43'1 0.9
2014-Dec-10 20:33N 30°24' W 086°42'0 0.1
2014-Dec-10 19:33N 30°25' W 086°42'0 0.0
2014-Dec-10 18:24N 30°24' W 086°42'0 0.0
2014-Dec-10 17:33N 30°24' W 086°42'0 0.0
2014-Dec-10 16:26N 30°24' W 086°42'0 0.0
2014-Dec-10 15:33N 30°24' W 086°42'0 0.0
2014-Dec-10 14:33N 30°24' W 086°42'0 0.0
2014-Dec-10 13:33N 30°24' W 086°42'0 0.0
2014-Dec-10 12:31N 30°24' W 086°42'0 0.0
2014-Dec-10 11:26N 30°24' W 086°42'0 0.0
2014-Dec-10 10:33N 30°24' W 086°42'0 0.0
2014-Dec-10 09:33N 30°24' W 086°42'0 0.0
2014-Dec-10 08:33N 30°24' W 086°42'0 0.0
2014-Dec-10 07:30N 30°24' W 086°42'0 0.0
2014-Dec-10 06:33N 30°24' W 086°42'0 0.0
2014-Dec-10 05:33N 30°24' W 086°42'0 0.0
2014-Dec-10 04:33N 30°24' W 086°42'0 0.0
2014-Dec-10 03:33N 30°24' W 086°42'0 0.0
2014-Dec-10 02:33N 30°24' W 086°42'0 0.1
2014-Dec-10 01:33N 30°24' W 086°42'2 1.6
2014-Dec-10 00:29N 30°24' W 086°40'4 4.5
2014-Dec-09 23:33N 30°24' W 086°35'6 5.6
2014-Dec-09 22:33N 30°26' W 086°29'3 2.8
2014-Dec-09 21:33N 30°29' W 086°29'0 0.0
2014-Dec-09 20:33N 30°29' W 086°29'0 0.0
2014-Dec-09 19:33N 30°29' W 086°29'0 0.0
2014-Dec-09 18:33N 30°29' W 086°29'0 0.0
2014-Dec-09 17:33N 30°29' W 086°29'0 0.0
2014-Dec-09 16:33N 30°29' W 086°29'0 0.0
2014-Dec-09 15:33N 30°29' W 086°29'0 0.0
2014-Dec-09 14:33N 30°29' W 086°29'0 0.0
2014-Dec-09 13:33N 30°29' W 086°29'2 2.0
2014-Dec-09 12:33N 30°27' W 086°28'5 5.0
2014-Dec-09 11:33N 30°26' W 086°22'5 5.4
2014-Dec-09 10:33N 30°26' W 086°16'  

Dump ship's entire track history